Terminal Aerodrome Forecast
Issued by NWS

Home | Current Version | Previous Version | Text Only | Print | Product List | Glossary On
Versions: 1 2 3 4 5 6 7 8 9 10 11 12 13 14 15 16
000
FTUS43 KMPX 271739
TAFRNH
TAF
KRNH 271739Z 2718/2818 21009KT P6SM BKN200
     FM280000 17006KT P6SM SCT090 BKN150
     FM280600 15006KT 4SM -DZ BR SCT015 OVC050
     FM280900 VRB03KT 5SM -DZ BR OVC015
     FM281200 VRB03KT 2SM -DZ BR OVC008
     FM281500 04004KT 4SM -RA BR OVC005=

USA.gov is the U.S. government's official web portal to all federal, state and local government web resources and services.